createdAt,value
2018-12-20T00:00:36.477Z,24.70
2018-12-20T00:03:02.838Z,24.67
2018-12-20T00:05:29.345Z,26.40
2018-12-20T00:07:55.738Z,25.50
2018-12-20T00:10:22.010Z,24.73
2018-12-20T00:12:48.692Z,26.87
2018-12-20T00:15:16.408Z,25.60
2018-12-20T00:17:46.895Z,26.47
2018-12-20T00:20:13.594Z,24.97
2018-12-20T00:22:40.184Z,26.50
2018-12-20T00:25:07.753Z,25.30
2018-12-20T00:27:34.973Z,26.60
2018-12-20T00:30:02.361Z,24.27
2018-12-20T00:32:28.632Z,26.47
2018-12-20T00:34:55.058Z,25.30
2018-12-20T00:37:21.773Z,26.27
2018-12-20T00:39:48.169Z,26.13
2018-12-20T00:42:14.734Z,25.87
2018-12-20T00:44:41.091Z,25.80
2018-12-20T00:47:07.643Z,25.93
2018-12-20T00:49:34.244Z,27.50
2018-12-20T00:52:01.096Z,26.23
2018-12-20T00:54:27.716Z,26.77
2018-12-20T00:56:54.362Z,26.60
2018-12-20T00:59:21.025Z,26.97
2018-12-20T01:01:48.046Z,26.90
2018-12-20T01:04:14.476Z,26.07
2018-12-20T01:06:40.743Z,25.67
2018-12-20T01:09:07.182Z,25.67
2018-12-20T01:11:33.631Z,26.50
2018-12-20T01:14:00.217Z,25.40
2018-12-20T01:16:26.609Z,26.27
2018-12-20T01:18:53.128Z,28.17
2018-12-20T01:21:19.484Z,26.73
2018-12-20T01:23:45.906Z,27.40
2018-12-20T01:26:12.291Z,28.33
2018-12-20T01:28:38.619Z,26.20
2018-12-20T01:31:05.019Z,26.00
2018-12-20T01:33:31.376Z,29.13
2018-12-20T01:35:57.704Z,26.50
2018-12-20T01:38:24.082Z,28.40
2018-12-20T01:40:50.450Z,27.87
2018-12-20T01:43:16.672Z,28.10
2018-12-20T01:45:42.937Z,27.87
2018-12-20T01:48:09.255Z,28.77
2018-12-20T01:50:35.564Z,27.17
2018-12-20T01:55:54.424Z,27.93
2018-12-20T01:58:20.936Z,28.00
2018-12-20T02:00:48.389Z,29.97
2018-12-20T02:03:14.748Z,29.37
2018-12-20T02:05:41.450Z,30.87
2018-12-20T02:08:07.783Z,34.60
2018-12-20T02:10:34.160Z,29.50
2018-12-20T02:13:00.601Z,30.83
2018-12-20T02:15:26.893Z,30.13
2018-12-20T02:17:53.250Z,31.80
2018-12-20T02:20:19.665Z,29.57
2018-12-20T02:22:45.938Z,28.30
2018-12-20T02:25:12.263Z,29.90
2018-12-20T02:27:38.593Z,28.77
2018-12-20T02:30:07.817Z,30.03
2018-12-20T02:32:34.224Z,28.70
2018-12-20T02:35:00.465Z,28.67
2018-12-20T02:37:26.893Z,28.67
2018-12-20T02:39:53.232Z,28.57
2018-12-20T02:42:19.495Z,30.50
2018-12-20T02:44:45.866Z,29.17
2018-12-20T02:47:12.305Z,30.40
2018-12-20T02:49:38.654Z,32.00
2018-12-20T02:52:04.925Z,30.07
2018-12-20T02:54:31.377Z,30.67
2018-12-20T02:56:57.677Z,29.37
2018-12-20T02:59:24.016Z,31.30
2018-12-20T03:01:50.321Z,28.40
2018-12-20T03:04:16.592Z,29.70
2018-12-20T03:06:42.889Z,30.50
2018-12-20T03:09:09.201Z,29.30
2018-12-20T03:11:35.699Z,30.17
2018-12-20T03:14:02.679Z,29.30
2018-12-20T03:16:29.089Z,30.20
2018-12-20T03:18:55.648Z,28.80
2018-12-20T03:24:15.671Z,29.47
2018-12-20T03:26:42.132Z,29.00
2018-12-20T03:29:08.744Z,29.90
2018-12-20T03:31:34.976Z,30.37
2018-12-20T03:34:01.456Z,30.70
2018-12-20T03:36:27.814Z,29.87
2018-12-20T03:38:54.092Z,29.10
2018-12-20T03:41:20.622Z,27.90
2018-12-20T03:43:47.185Z,28.70
2018-12-20T03:46:13.587Z,29.50
2018-12-20T03:48:40.108Z,27.87
2018-12-20T03:51:06.718Z,29.87
2018-12-20T03:53:33.408Z,29.07
2018-12-20T03:55:59.941Z,28.57
2018-12-20T03:58:26.335Z,29.53
2018-12-20T04:00:52.590Z,28.93
2018-12-20T04:03:19.012Z,29.40
2018-12-20T04:05:45.297Z,28.67
2018-12-20T04:08:11.596Z,29.40
2018-12-20T04:10:38.294Z,29.80
2018-12-20T04:13:04.745Z,30.00
2018-12-20T04:15:37.765Z,29.97
2018-12-20T04:17:59.915Z,27.17
2018-12-20T04:20:26.309Z,29.30
2018-12-20T04:22:52.662Z,28.07
2018-12-20T04:25:19.063Z,29.20
2018-12-20T04:27:45.343Z,28.43
2018-12-20T04:30:11.935Z,29.20
2018-12-20T04:32:38.347Z,26.93
2018-12-20T04:35:04.760Z,27.33
2018-12-20T04:37:32.234Z,29.30
2018-12-20T04:39:58.733Z,28.27
2018-12-20T04:42:25.002Z,27.60
2018-12-20T04:44:51.230Z,27.90
2018-12-20T04:47:17.752Z,30.53
2018-12-20T04:49:44.184Z,28.93
2018-12-20T04:52:10.596Z,29.03
2018-12-20T04:54:37.429Z,28.87
2018-12-20T04:57:03.746Z,30.33
2018-12-20T04:59:30.262Z,30.10
2018-12-20T05:01:56.671Z,30.63
2018-12-20T05:04:23.014Z,30.37
2018-12-20T05:06:49.214Z,30.50
2018-12-20T05:09:15.483Z,30.60
2018-12-20T05:11:42.010Z,33.90
2018-12-20T05:14:08.803Z,31.20
2018-12-20T05:16:35.287Z,30.20
2018-12-20T05:19:01.726Z,30.97
2018-12-20T05:21:28.013Z,31.90
2018-12-20T05:23:54.564Z,33.57
2018-12-20T05:26:20.934Z,32.97
2018-12-20T05:28:47.537Z,32.57
2018-12-20T05:31:13.778Z,33.30
2018-12-20T05:33:40.189Z,34.27
2018-12-20T05:36:07.550Z,31.60
2018-12-20T05:38:33.896Z,32.93
2018-12-20T05:41:00.247Z,33.43
2018-12-20T05:43:26.850Z,32.63
2018-12-20T05:45:53.265Z,34.00
2018-12-20T05:48:19.610Z,32.33
2018-12-20T05:50:45.951Z,34.13
2018-12-20T05:53:12.211Z,33.20
2018-12-20T05:55:38.543Z,30.70
2018-12-20T05:58:04.757Z,33.10
2018-12-20T06:00:31.086Z,34.43
2018-12-20T06:02:57.483Z,32.00
2018-12-20T06:05:24.983Z,34.77
2018-12-20T06:07:51.426Z,32.50
2018-12-20T06:10:17.839Z,33.37
2018-12-20T06:12:44.210Z,31.60
2018-12-20T06:15:10.761Z,33.17
2018-12-20T06:20:29.867Z,33.10
2018-12-20T06:22:56.194Z,32.50
2018-12-20T06:25:22.455Z,34.03
2018-12-20T06:27:48.721Z,35.20
2018-12-20T06:33:07.572Z,34.60
2018-12-20T06:35:33.783Z,34.50
2018-12-20T06:38:00.019Z,34.80
2018-12-20T06:40:26.541Z,35.30
2018-12-20T06:42:52.758Z,33.60
2018-12-20T06:45:19.029Z,32.20
2018-12-20T06:47:45.296Z,33.73
2018-12-20T06:50:11.543Z,32.20
2018-12-20T06:52:37.774Z,31.67
2018-12-20T06:55:04.166Z,32.40
2018-12-20T06:57:30.437Z,34.30
2018-12-20T06:59:56.654Z,35.83
2018-12-20T07:02:23.042Z,31.80
2018-12-20T07:04:51.676Z,34.90
2018-12-20T07:07:17.925Z,32.33
2018-12-20T07:09:44.266Z,31.60
2018-12-20T07:12:10.463Z,31.37
2018-12-20T07:14:36.645Z,34.07
2018-12-20T07:17:02.879Z,32.93
2018-12-20T07:19:29.075Z,31.57
2018-12-20T07:21:55.293Z,31.40
2018-12-20T07:24:21.865Z,31.83
2018-12-20T07:26:48.093Z,33.63
2018-12-20T07:29:14.375Z,31.83
2018-12-20T07:31:40.587Z,32.87
2018-12-20T07:34:06.924Z,32.20
2018-12-20T07:36:33.142Z,32.80
2018-12-20T07:38:59.407Z,32.20
2018-12-20T07:41:25.673Z,33.23
2018-12-20T07:43:51.907Z,33.70
2018-12-20T07:46:19.025Z,33.83
2018-12-20T07:48:45.949Z,31.50
2018-12-20T07:51:12.206Z,33.03
2018-12-20T07:53:38.407Z,33.07
2018-12-20T07:56:04.746Z,34.90
2018-12-20T07:58:30.956Z,34.20
2018-12-20T08:00:57.379Z,32.90
2018-12-20T08:03:23.701Z,32.37
2018-12-20T08:05:49.906Z,34.87
2018-12-20T08:08:16.244Z,34.60
2018-12-20T08:10:42.619Z,31.70
2018-12-20T08:13:08.805Z,32.50
2018-12-20T08:15:35.114Z,34.40
2018-12-20T08:18:01.289Z,33.87
2018-12-20T08:20:27.499Z,33.00
2018-12-20T08:22:53.829Z,32.43
2018-12-20T08:25:20.090Z,33.30
2018-12-20T08:27:46.253Z,33.97
2018-12-20T08:30:12.733Z,33.77
2018-12-20T08:32:39.087Z,35.20
2018-12-20T08:35:05.420Z,34.87
2018-12-20T08:37:31.675Z,33.23
2018-12-20T08:39:57.948Z,34.80
2018-12-20T08:42:24.774Z,35.90
2018-12-20T08:44:51.174Z,36.67
2018-12-20T08:50:10.273Z,32.80
2018-12-20T08:52:36.489Z,35.33
2018-12-20T08:55:03.218Z,35.33
2018-12-20T08:57:29.432Z,34.27
2018-12-20T08:59:55.618Z,34.47
2018-12-20T09:02:21.843Z,35.13
2018-12-20T09:04:48.017Z,32.50
2018-12-20T09:07:14.193Z,33.40
2018-12-20T09:09:40.392Z,32.20
2018-12-20T09:14:59.101Z,32.83
2018-12-20T09:17:25.443Z,30.50
2018-12-20T09:19:51.687Z,32.27
2018-12-20T09:22:17.967Z,31.93
2018-12-20T09:24:45.502Z,31.03
2018-12-20T09:27:11.956Z,30.50
2018-12-20T09:29:38.155Z,30.30
2018-12-20T09:32:04.407Z,30.80
2018-12-20T09:34:30.632Z,31.23
2018-12-20T09:36:56.826Z,30.30
2018-12-20T09:39:23.037Z,29.37
2018-12-20T09:41:49.306Z,29.40
2018-12-20T09:44:15.535Z,28.70
2018-12-20T09:46:43.424Z,31.10
2018-12-20T09:49:09.859Z,29.30
2018-12-20T09:51:36.088Z,33.30
2018-12-20T09:54:02.572Z,32.77
2018-12-20T09:56:28.762Z,30.03
2018-12-20T09:58:54.960Z,31.30
2018-12-20T10:01:22.233Z,31.47
2018-12-20T10:03:48.547Z,29.00
2018-12-20T10:09:07.233Z,30.93
2018-12-20T10:11:33.510Z,30.30
2018-12-20T10:13:59.739Z,29.53
2018-12-20T10:16:25.970Z,29.03
2018-12-20T10:18:52.170Z,27.03
2018-12-20T10:21:18.423Z,30.30
2018-12-20T10:23:44.606Z,31.67
2018-12-20T10:26:10.795Z,29.60
2018-12-20T10:28:37.209Z,30.90
2018-12-20T10:31:03.414Z,33.53
2018-12-20T10:33:29.736Z,29.70
2018-12-20T10:35:56.100Z,30.43
2018-12-20T10:38:22.282Z,28.53
2018-12-20T10:40:48.501Z,29.17
2018-12-20T10:43:14.997Z,31.97
2018-12-20T10:45:41.211Z,29.13
2018-12-20T10:48:07.491Z,28.67
2018-12-20T10:50:34.790Z,25.97
2018-12-20T10:53:01.057Z,30.77
2018-12-20T10:55:27.288Z,34.20
2018-12-20T10:57:53.690Z,31.07
2018-12-20T11:00:20.114Z,30.93
2018-12-20T11:02:53.124Z,28.30
2018-12-20T11:05:21.807Z,28.47
2018-12-20T11:07:54.206Z,26.57
2018-12-20T11:10:23.420Z,26.80
2018-12-20T11:12:49.603Z,24.27
2018-12-20T11:15:15.924Z,27.30
2018-12-20T11:17:42.122Z,24.57
2018-12-20T11:20:08.418Z,26.10
2018-12-20T11:22:34.839Z,25.83
2018-12-20T11:25:02.076Z,25.73
2018-12-20T11:27:28.278Z,25.80
2018-12-20T11:29:54.455Z,26.70
2018-12-20T11:32:20.729Z,26.20
2018-12-20T11:34:46.935Z,29.10
2018-12-20T11:37:13.205Z,30.70
2018-12-20T11:39:39.415Z,31.73
2018-12-20T11:42:05.729Z,31.17
2018-12-20T11:44:31.924Z,27.37
2018-12-20T11:46:58.095Z,27.73
2018-12-20T11:49:24.300Z,28.77
2018-12-20T11:51:50.516Z,27.90
2018-12-20T11:54:16.698Z,30.73
2018-12-20T11:56:42.907Z,28.07
2018-12-20T11:59:09.143Z,28.67
2018-12-20T12:01:35.389Z,29.83
2018-12-20T12:04:01.833Z,30.63
2018-12-20T12:06:28.153Z,28.63
2018-12-20T12:08:54.357Z,28.40
2018-12-20T12:11:20.632Z,29.17
2018-12-20T12:13:46.961Z,29.20
2018-12-20T12:16:13.317Z,30.90
2018-12-20T12:18:39.601Z,28.10
2018-12-20T12:21:05.885Z,31.60
2018-12-20T12:23:32.189Z,30.50
2018-12-20T12:28:50.819Z,28.23
2018-12-20T12:31:17.066Z,30.43
2018-12-20T12:33:43.252Z,28.70
2018-12-20T12:36:09.466Z,30.27
2018-12-20T12:38:35.834Z,28.80
2018-12-20T12:41:02.043Z,30.33
2018-12-20T12:43:28.252Z,29.30
2018-12-20T12:45:54.623Z,29.93
2018-12-20T12:48:20.854Z,33.57
2018-12-20T12:50:47.159Z,31.50
2018-12-20T12:53:13.359Z,27.47
2018-12-20T12:55:39.706Z,27.60
2018-12-20T12:58:05.898Z,25.30
2018-12-20T13:00:32.111Z,25.50
2018-12-20T13:02:58.334Z,25.17
2018-12-20T13:05:24.589Z,28.53
2018-12-20T13:07:50.767Z,25.87
2018-12-20T13:10:16.973Z,25.47
2018-12-20T13:12:43.218Z,25.00
2018-12-20T13:15:10.598Z,24.27
2018-12-20T13:17:37.002Z,24.53
2018-12-20T13:20:05.783Z,23.83
2018-12-20T13:22:32.004Z,24.20
2018-12-20T13:24:58.933Z,22.27
2018-12-20T13:27:25.178Z,23.80
2018-12-20T13:29:51.468Z,22.20
2018-12-20T13:32:17.654Z,22.80
2018-12-20T13:34:43.859Z,23.57
2018-12-20T13:37:15.824Z,22.30
2018-12-20T13:39:38.258Z,22.80
2018-12-20T13:42:04.526Z,21.30
2018-12-20T13:44:30.797Z,23.20
2018-12-20T13:46:57.038Z,21.53
2018-12-20T13:49:23.239Z,22.17
2018-12-20T13:51:49.413Z,20.70
2018-12-20T13:54:15.590Z,22.00
2018-12-20T13:56:41.804Z,22.00
2018-12-20T14:02:00.383Z,24.50
2018-12-20T14:04:26.595Z,22.43
2018-12-20T14:06:53.148Z,22.37
2018-12-20T14:09:19.867Z,22.40
2018-12-20T14:11:46.311Z,22.13
2018-12-20T14:14:12.546Z,20.33
2018-12-20T14:16:38.879Z,20.13
2018-12-20T14:19:05.411Z,20.07
2018-12-20T14:21:31.615Z,21.23
2018-12-20T14:23:58.019Z,20.70
2018-12-20T14:26:24.337Z,21.33
2018-12-20T14:28:50.647Z,19.90
2018-12-20T14:31:16.823Z,21.40
2018-12-20T14:33:44.177Z,20.60
2018-12-20T14:36:10.393Z,19.63
2018-12-20T14:38:36.599Z,20.63
2018-12-20T14:41:02.935Z,21.47
2018-12-20T14:43:29.154Z,22.93
2018-12-20T14:45:55.415Z,20.83
2018-12-20T14:48:29.012Z,20.53
2018-12-20T14:53:47.780Z,21.43
2018-12-20T14:56:14.057Z,19.90
2018-12-20T14:58:47.222Z,23.17
2018-12-20T15:01:13.564Z,21.20
2018-12-20T15:03:40.021Z,19.53
2018-12-20T15:06:06.548Z,20.13
2018-12-20T15:08:33.015Z,19.47
2018-12-20T15:10:59.216Z,18.43
2018-12-20T15:13:25.500Z,20.10
2018-12-20T15:15:51.817Z,19.80
2018-12-20T15:18:18.043Z,19.90
2018-12-20T15:20:44.435Z,20.60
2018-12-20T15:26:03.305Z,20.13
2018-12-20T15:28:29.504Z,18.90
2018-12-20T15:30:55.865Z,20.50
2018-12-20T15:33:22.146Z,19.87
2018-12-20T15:35:48.387Z,19.57
2018-12-20T15:38:14.650Z,20.40
2018-12-20T15:40:40.862Z,19.10
2018-12-20T15:43:07.264Z,19.37
2018-12-20T15:45:33.465Z,21.03
2018-12-20T15:47:59.646Z,19.53
2018-12-20T15:50:25.834Z,21.40
2018-12-20T15:52:52.060Z,20.33
2018-12-20T15:55:18.275Z,20.17
2018-12-20T15:57:44.676Z,20.00
2018-12-20T16:00:11.014Z,19.83
2018-12-20T16:02:37.211Z,20.00
2018-12-20T16:05:04.361Z,19.00
2018-12-20T16:07:30.573Z,20.63
2018-12-20T16:09:56.767Z,19.37
2018-12-20T16:12:23.029Z,19.90
2018-12-20T16:14:49.317Z,18.43
2018-12-20T16:17:15.618Z,18.00
2018-12-20T16:19:41.849Z,16.57
2018-12-20T16:22:08.044Z,17.83
2018-12-20T16:24:37.936Z,19.20
2018-12-20T16:27:04.209Z,25.40
2018-12-20T16:29:30.543Z,23.07
2018-12-20T16:31:56.923Z,20.10
2018-12-20T16:34:23.108Z,19.07
2018-12-20T16:36:49.338Z,19.00
2018-12-20T16:39:15.607Z,20.40
2018-12-20T16:41:41.976Z,20.90
2018-12-20T16:44:08.240Z,19.77
2018-12-20T16:46:34.547Z,19.10
2018-12-20T16:49:00.853Z,19.10
2018-12-20T16:51:27.183Z,21.00
2018-12-20T16:53:53.489Z,18.90
2018-12-20T16:56:19.829Z,19.83
2018-12-20T16:58:46.038Z,20.07
2018-12-20T17:01:12.438Z,20.97
2018-12-20T17:03:39.482Z,21.27
2018-12-20T17:08:58.156Z,21.63
2018-12-20T17:11:24.537Z,21.37
2018-12-20T17:13:50.884Z,19.63
2018-12-20T17:16:17.214Z,19.87
2018-12-20T17:18:43.531Z,22.17
2018-12-20T17:21:09.830Z,22.13
2018-12-20T17:23:36.077Z,18.10
2018-12-20T17:26:02.426Z,20.00
2018-12-20T17:28:28.627Z,20.90
2018-12-20T17:30:54.916Z,21.50
2018-12-20T17:33:21.391Z,18.73
2018-12-20T17:35:47.677Z,19.50
2018-12-20T17:38:13.895Z,20.20
2018-12-20T17:40:40.095Z,19.83
2018-12-20T17:43:06.323Z,19.30
2018-12-20T17:45:32.635Z,19.60
2018-12-20T17:47:58.838Z,17.53
2018-12-20T17:50:25.127Z,19.13
2018-12-20T17:52:51.463Z,17.43
2018-12-20T17:55:18.634Z,18.10
2018-12-20T17:57:44.826Z,18.10
2018-12-20T18:00:11.237Z,18.60
2018-12-20T18:02:37.479Z,18.17
2018-12-20T18:05:07.080Z,19.27
2018-12-20T18:07:32.422Z,20.17
2018-12-20T18:09:58.615Z,17.30
2018-12-20T18:12:24.772Z,19.30
2018-12-20T18:14:51.166Z,20.37
2018-12-20T18:17:17.367Z,17.80
2018-12-20T18:19:43.528Z,17.40
2018-12-20T18:22:09.785Z,18.40
2018-12-20T18:24:36.182Z,17.23
2018-12-20T18:27:02.604Z,17.00
2018-12-20T18:29:28.978Z,18.07
2018-12-20T18:31:57.215Z,16.00
2018-12-20T18:34:24.845Z,17.00
2018-12-20T18:36:51.970Z,17.10
2018-12-20T18:39:19.215Z,16.13
2018-12-20T18:41:45.685Z,15.83
2018-12-20T18:44:13.068Z,15.07
2018-12-20T18:46:40.436Z,14.93
2018-12-20T18:49:07.806Z,15.23
2018-12-20T18:51:35.257Z,14.60
2018-12-20T18:54:02.071Z,14.17
2018-12-20T18:56:28.511Z,14.97
2018-12-20T18:58:55.155Z,13.20
2018-12-20T19:01:22.157Z,15.00
2018-12-20T19:03:49.637Z,14.27
2018-12-20T19:06:15.823Z,14.30
2018-12-20T19:08:42.108Z,14.30
2018-12-20T19:11:08.353Z,15.00
2018-12-20T19:13:34.784Z,15.53
2018-12-20T19:16:01.090Z,16.40
2018-12-20T19:18:27.307Z,15.03
2018-12-20T19:20:53.547Z,14.60
2018-12-20T19:23:20.901Z,15.77
2018-12-20T19:25:47.336Z,16.20
2018-12-20T19:28:13.851Z,15.93
2018-12-20T19:30:40.722Z,18.73
2018-12-20T19:33:07.050Z,17.00
2018-12-20T19:38:25.828Z,16.77
2018-12-20T19:40:52.094Z,18.93
2018-12-20T19:43:18.407Z,16.03
2018-12-20T19:45:46.071Z,14.93
2018-12-20T19:48:12.874Z,14.57
2018-12-20T19:50:39.089Z,14.03
2018-12-20T19:53:05.357Z,15.70
2018-12-20T19:55:31.551Z,16.50
2018-12-20T19:57:58.481Z,15.30
2018-12-20T20:00:24.668Z,14.30
2018-12-20T20:02:50.965Z,16.23
2018-12-20T20:05:17.349Z,19.73
2018-12-20T20:07:43.610Z,19.70
2018-12-20T20:10:09.828Z,15.37
2018-12-20T20:12:36.697Z,19.67
2018-12-20T20:15:05.210Z,12.20
2018-12-20T20:17:31.408Z,12.97
2018-12-20T20:19:59.829Z,12.80
2018-12-20T20:22:25.911Z,11.90
2018-12-20T20:24:52.182Z,13.07
2018-12-20T20:27:18.403Z,13.47
2018-12-20T20:29:44.606Z,12.87
2018-12-20T20:32:11.030Z,11.90
2018-12-20T20:34:37.230Z,12.47
2018-12-20T20:37:03.444Z,12.90
2018-12-20T20:39:29.846Z,14.20
2018-12-20T20:41:57.307Z,14.43
2018-12-20T20:44:23.633Z,13.00
2018-12-20T20:46:53.207Z,16.00
2018-12-20T20:49:19.452Z,13.07
2018-12-20T20:51:47.942Z,12.03
2018-12-20T20:54:14.358Z,12.10
2018-12-20T20:56:40.719Z,13.00
2018-12-20T20:59:07.145Z,13.10
2018-12-20T21:01:33.320Z,12.43
2018-12-20T21:04:03.470Z,11.40
2018-12-20T21:06:30.003Z,12.70
2018-12-20T21:08:56.350Z,12.63
2018-12-20T21:11:22.666Z,13.20
2018-12-20T21:13:48.972Z,13.27
2018-12-20T21:16:15.322Z,13.10
2018-12-20T21:18:41.554Z,12.10
2018-12-20T21:21:08.370Z,12.77
2018-12-20T21:23:34.826Z,11.40
2018-12-20T21:26:01.112Z,11.93
2018-12-20T21:28:27.346Z,12.57
2018-12-20T21:30:53.734Z,12.00
2018-12-20T21:33:20.109Z,12.23
2018-12-20T21:35:46.517Z,11.73
2018-12-20T21:38:12.914Z,12.20
2018-12-20T21:40:39.164Z,11.70
2018-12-20T21:43:05.426Z,12.83
2018-12-20T21:45:32.813Z,13.90
2018-12-20T21:48:00.086Z,12.73
2018-12-20T21:50:38.774Z,12.60
2018-12-20T21:53:05.871Z,11.73
2018-12-20T21:55:32.112Z,13.23
2018-12-20T21:57:58.338Z,12.93
2018-12-20T22:00:24.573Z,13.20
2018-12-20T22:02:51.378Z,14.00
2018-12-20T22:05:17.638Z,13.53
2018-12-20T22:07:43.855Z,13.37
2018-12-20T22:10:10.710Z,13.60
2018-12-20T22:12:36.969Z,12.97
2018-12-20T22:15:05.193Z,12.87
2018-12-20T22:17:31.451Z,12.03
2018-12-20T22:19:58.718Z,13.40
2018-12-20T22:22:26.065Z,12.47
2018-12-20T22:27:44.706Z,13.50
2018-12-20T22:30:10.954Z,13.43
2018-12-20T22:32:37.186Z,13.30
2018-12-20T22:35:03.843Z,13.70
2018-12-20T22:37:30.954Z,13.23
2018-12-20T22:39:57.186Z,14.10
2018-12-20T22:42:24.060Z,13.23
2018-12-20T22:44:50.646Z,13.43
2018-12-20T22:47:16.911Z,13.80
2018-12-20T22:49:43.305Z,13.97
2018-12-20T22:52:09.647Z,13.80
2018-12-20T22:54:35.891Z,13.90
2018-12-20T22:57:02.780Z,15.33
2018-12-20T23:02:22.308Z,14.77
2018-12-20T23:04:49.173Z,13.20
2018-12-20T23:07:15.521Z,14.50
2018-12-20T23:09:42.009Z,14.20
2018-12-20T23:12:08.326Z,14.47
2018-12-20T23:14:34.714Z,14.40
2018-12-20T23:17:00.957Z,14.40
2018-12-20T23:19:27.738Z,14.47
2018-12-20T23:21:54.042Z,13.50
2018-12-20T23:24:20.420Z,13.97
2018-12-20T23:26:46.681Z,14.00
2018-12-20T23:29:12.891Z,14.33
2018-12-20T23:31:39.351Z,13.20
2018-12-20T23:34:05.645Z,13.63
2018-12-20T23:36:31.924Z,13.57
2018-12-20T23:38:58.231Z,12.27
2018-12-20T23:41:24.578Z,13.10
2018-12-20T23:43:51.062Z,12.47
2018-12-20T23:46:17.512Z,12.57
2018-12-20T23:48:43.909Z,11.53
2018-12-20T23:51:13.903Z,13.03
2018-12-20T23:53:38.784Z,12.40
2018-12-20T23:56:05.042Z,12.10
2018-12-20T23:58:31.343Z,13.40
